createdAt,value
2019-05-07T00:00:49.591Z,6.28
2019-05-07T00:03:17.982Z,6.21
2019-05-07T00:05:46.393Z,6.22
2019-05-07T00:08:14.819Z,6.13
2019-05-07T00:10:43.233Z,6.09
2019-05-07T00:13:12.883Z,6.11
2019-05-07T00:15:42.030Z,6.10
2019-05-07T00:18:12.579Z,6.07
2019-05-07T00:20:42.319Z,6.04
2019-05-07T00:23:12.383Z,6.01
2019-05-07T00:25:42.199Z,5.97
2019-05-07T00:28:12.195Z,5.96
2019-05-07T00:30:42.543Z,5.92
2019-05-07T00:33:13.104Z,5.89
2019-05-07T00:35:48.817Z,5.79
2019-05-07T00:38:19.573Z,5.74
2019-05-07T00:40:55.240Z,5.73
2019-05-07T00:43:25.315Z,5.70
2019-05-07T00:45:56.982Z,5.70
2019-05-07T00:48:25.645Z,5.69
2019-05-07T00:50:55.720Z,5.59
2019-05-07T00:53:24.241Z,5.61
2019-05-07T00:55:52.790Z,5.76
2019-05-07T00:58:26.342Z,5.85
2019-05-07T01:00:53.115Z,5.89
2019-05-07T01:03:22.313Z,5.93
2019-05-07T01:05:52.760Z,5.91
2019-05-07T01:08:22.627Z,5.94
2019-05-07T01:10:52.870Z,6.02
2019-05-07T01:13:23.387Z,6.03
2019-05-07T01:15:53.152Z,6.07
2019-05-07T01:18:23.298Z,6.11
2019-05-07T01:20:53.255Z,6.10
2019-05-07T01:23:22.933Z,6.12
2019-05-07T01:25:52.602Z,6.21
2019-05-07T01:28:22.275Z,6.25
2019-05-07T01:30:52.842Z,6.18
2019-05-07T01:33:37.997Z,6.17
2019-05-07T01:36:08.062Z,6.17
2019-05-07T01:38:36.535Z,6.16
2019-05-07T01:41:05.050Z,6.14
2019-05-07T01:43:33.480Z,6.13
2019-05-07T01:46:03.194Z,6.17
2019-05-07T01:48:32.374Z,6.21
2019-05-07T01:51:03.171Z,6.22
2019-05-07T01:53:32.316Z,6.17
2019-05-07T01:56:03.054Z,6.09
2019-05-07T01:58:33.065Z,5.88
2019-05-07T02:01:02.843Z,5.77
2019-05-07T02:03:52.775Z,5.76
2019-05-07T02:06:22.971Z,5.76
2019-05-07T02:08:53.169Z,5.70
2019-05-07T02:11:23.382Z,5.65
2019-05-07T02:13:52.945Z,5.74
2019-05-07T02:16:21.898Z,5.87
2019-05-07T02:18:52.661Z,5.87
2019-05-07T02:21:22.092Z,5.92
2019-05-07T02:23:52.353Z,6.01
2019-05-07T02:26:22.540Z,6.03
2019-05-07T02:28:51.876Z,5.98
2019-05-07T02:31:23.112Z,5.82
2019-05-07T02:33:53.839Z,5.68
2019-05-07T02:36:23.692Z,5.60
2019-05-07T02:38:55.484Z,5.72
2019-05-07T02:41:25.534Z,5.65
2019-05-07T02:43:54.052Z,5.59
2019-05-07T02:46:36.272Z,5.39
2019-05-07T02:49:04.600Z,5.29
2019-05-07T02:51:37.414Z,5.32
2019-05-07T02:54:07.489Z,5.16
2019-05-07T02:56:35.976Z,5.02
2019-05-07T02:59:04.487Z,4.86
2019-05-07T03:01:33.769Z,4.79
2019-05-07T03:04:03.665Z,4.80
2019-05-07T03:06:33.970Z,4.89
2019-05-07T03:09:03.303Z,4.78
2019-05-07T03:11:34.045Z,4.73
2019-05-07T03:14:03.252Z,4.81
2019-05-07T03:16:39.820Z,4.83
2019-05-07T03:19:04.012Z,4.87
2019-05-07T03:21:53.452Z,5.03
2019-05-07T03:24:23.073Z,5.05
2019-05-07T03:26:53.605Z,5.11
2019-05-07T03:29:24.132Z,5.23
2019-05-07T03:31:56.395Z,5.30
2019-05-07T03:34:46.645Z,5.32
2019-05-07T03:37:15.620Z,5.23
2019-05-07T03:39:44.122Z,5.17
2019-05-07T03:42:13.151Z,5.20
2019-05-07T03:44:46.283Z,5.14
2019-05-07T03:47:28.229Z,5.15
2019-05-07T03:49:56.731Z,5.22
2019-05-07T03:52:25.146Z,5.29
2019-05-07T03:54:54.260Z,5.41
2019-05-07T03:57:23.682Z,5.45
2019-05-07T03:59:53.247Z,5.47
2019-05-07T04:02:23.876Z,5.43
2019-05-07T04:04:52.921Z,5.45
2019-05-07T04:07:23.267Z,5.52
2019-05-07T04:09:53.499Z,5.60
2019-05-07T04:12:23.912Z,5.70
2019-05-07T04:14:53.406Z,5.73
2019-05-07T04:17:26.474Z,5.76
2019-05-07T04:19:53.257Z,5.77
2019-05-07T04:22:26.444Z,5.70
2019-05-07T04:24:53.802Z,5.47
2019-05-07T04:27:26.935Z,5.36
2019-05-07T04:29:55.325Z,5.34
2019-05-07T04:32:25.417Z,5.43
2019-05-07T04:34:58.277Z,5.55
2019-05-07T04:37:26.700Z,5.60
2019-05-07T04:39:55.129Z,5.68
2019-05-07T04:42:24.618Z,5.63
2019-05-07T04:44:54.058Z,5.55
2019-05-07T04:47:34.466Z,5.40
2019-05-07T04:49:53.524Z,5.38
2019-05-07T04:52:23.973Z,5.53
2019-05-07T04:54:52.868Z,5.62
2019-05-07T04:57:25.870Z,5.52
2019-05-07T04:59:55.982Z,5.63
2019-05-07T05:02:27.091Z,5.73
2019-05-07T05:04:55.535Z,5.90
2019-05-07T05:07:24.037Z,6.10
2019-05-07T05:09:53.245Z,5.62
2019-05-07T05:12:23.060Z,5.57
2019-05-07T05:14:52.438Z,5.57
2019-05-07T05:17:22.486Z,5.62
2019-05-07T05:19:52.524Z,5.72
2019-05-07T05:22:22.701Z,6.46
2019-05-07T05:25:09.029Z,6.92
2019-05-07T05:27:37.689Z,6.74
2019-05-07T05:30:09.498Z,7.21
2019-05-07T05:32:37.926Z,7.79
2019-05-07T05:35:12.513Z,8.39
2019-05-07T05:37:42.782Z,8.75
2019-05-07T05:40:12.334Z,8.42
2019-05-07T05:42:43.087Z,8.07
2019-05-07T05:45:29.732Z,7.67
2019-05-07T05:48:04.563Z,7.23
2019-05-07T05:50:29.991Z,6.94
2019-05-07T05:53:05.940Z,6.37
2019-05-07T05:55:35.853Z,6.62
2019-05-07T05:58:12.295Z,6.64
2019-05-07T06:00:45.159Z,6.51
2019-05-07T06:03:32.242Z,6.60
2019-05-07T06:06:02.431Z,6.45
2019-05-07T06:08:32.755Z,6.66
2019-05-07T06:11:02.788Z,6.57
2019-05-07T06:13:43.981Z,6.44
2019-05-07T06:16:17.263Z,6.44
2019-05-07T06:18:50.098Z,6.90
2019-05-07T06:21:34.102Z,7.39
2019-05-07T06:24:06.586Z,7.50
2019-05-07T06:26:35.455Z,8.04
2019-05-07T06:29:03.866Z,8.24
2019-05-07T06:31:32.754Z,8.33
2019-05-07T06:34:01.841Z,8.40
2019-05-07T06:36:32.889Z,8.38
2019-05-07T06:39:03.049Z,8.00
2019-05-07T06:41:49.074Z,8.15
2019-05-07T06:44:19.122Z,8.47
2019-05-07T06:46:47.536Z,8.28
2019-05-07T06:49:15.992Z,8.82
2019-05-07T06:51:47.586Z,8.85
2019-05-07T06:54:14.531Z,9.22
2019-05-07T06:56:43.001Z,9.00
2019-05-07T06:59:13.164Z,9.16
2019-05-07T07:02:02.335Z,9.51
2019-05-07T07:04:44.902Z,9.15
2019-05-07T07:07:32.299Z,9.86
2019-05-07T07:10:04.586Z,10.06
2019-05-07T07:12:33.378Z,10.29
2019-05-07T07:15:02.745Z,10.85
2019-05-07T07:17:32.590Z,10.22
2019-05-07T07:20:02.143Z,10.19
2019-05-07T07:22:31.979Z,9.91
2019-05-07T07:25:02.524Z,9.39
2019-05-07T07:27:32.188Z,9.57
2019-05-07T07:30:04.750Z,9.14
2019-05-07T07:32:34.821Z,9.20
2019-05-07T07:35:03.877Z,9.14
2019-05-07T07:37:39.638Z,8.98
2019-05-07T07:40:12.838Z,9.36
2019-05-07T07:42:42.626Z,9.38
2019-05-07T07:45:18.519Z,9.73
2019-05-07T07:47:47.519Z,10.22
2019-05-07T07:50:16.653Z,9.51
2019-05-07T07:52:45.203Z,9.70
2019-05-07T07:55:15.851Z,10.32
2019-05-07T07:57:48.993Z,10.40
2019-05-07T08:00:26.165Z,11.08
2019-05-07T08:02:56.915Z,10.34
2019-05-07T08:05:25.342Z,10.37
2019-05-07T08:07:53.808Z,10.77
2019-05-07T08:10:22.360Z,9.53
2019-05-07T08:12:52.544Z,9.67
2019-05-07T08:15:24.506Z,10.03
2019-05-07T08:17:52.237Z,10.38
2019-05-07T08:20:22.311Z,10.47
2019-05-07T08:22:52.614Z,9.85
2019-05-07T08:25:23.371Z,9.72
2019-05-07T08:27:52.414Z,10.16
2019-05-07T08:30:23.638Z,10.32
2019-05-07T08:33:02.017Z,10.31
2019-05-07T08:35:34.573Z,11.29
2019-05-07T08:38:03.025Z,10.20
2019-05-07T08:40:32.587Z,10.53
2019-05-07T08:43:03.048Z,10.59
2019-05-07T08:45:49.510Z,11.72
2019-05-07T08:48:23.088Z,11.96
2019-05-07T08:50:52.607Z,11.12
2019-05-07T08:53:22.485Z,10.65
2019-05-07T08:55:52.616Z,10.96
2019-05-07T08:58:22.453Z,10.51
2019-05-07T09:00:52.281Z,11.05
2019-05-07T09:03:25.006Z,11.02
2019-05-07T09:05:52.734Z,10.60
2019-05-07T09:08:22.049Z,11.39
2019-05-07T09:10:52.496Z,11.78
2019-05-07T09:13:22.589Z,12.72
2019-05-07T09:15:52.863Z,11.61
2019-05-07T09:18:22.880Z,11.85
2019-05-07T09:20:52.769Z,11.85
2019-05-07T09:23:22.365Z,12.33
2019-05-07T09:25:52.243Z,11.98
2019-05-07T09:28:22.312Z,13.01
2019-05-07T09:30:58.633Z,13.70
2019-05-07T09:33:46.840Z,14.10
2019-05-07T09:36:16.926Z,13.81
2019-05-07T09:38:56.098Z,12.82
2019-05-07T09:41:27.546Z,13.56
2019-05-07T09:43:57.443Z,14.32
2019-05-07T09:46:26.385Z,13.26
2019-05-07T09:48:54.918Z,12.94
2019-05-07T09:51:23.547Z,12.56
2019-05-07T09:53:52.431Z,13.05
2019-05-07T09:56:22.891Z,12.98
2019-05-07T09:58:52.916Z,12.34
2019-05-07T10:01:21.241Z,11.65
2019-05-07T10:03:51.745Z,11.94
2019-05-07T10:06:19.876Z,12.53
2019-05-07T10:08:48.284Z,12.04
2019-05-07T10:11:18.419Z,12.93
2019-05-07T10:13:52.386Z,13.53
2019-05-07T10:16:22.565Z,12.49
2019-05-07T10:18:52.051Z,12.68
2019-05-07T10:21:22.063Z,12.10
2019-05-07T10:23:52.185Z,12.81
2019-05-07T10:26:22.568Z,13.58
2019-05-07T10:28:52.887Z,14.19
2019-05-07T10:31:22.348Z,14.53
2019-05-07T10:33:52.455Z,14.26
2019-05-07T10:36:22.822Z,13.46
2019-05-07T10:38:52.021Z,14.11
2019-05-07T10:41:22.348Z,14.05
2019-05-07T10:43:51.963Z,13.75
2019-05-07T10:46:34.359Z,13.15
2019-05-07T10:49:13.580Z,13.32
2019-05-07T10:51:42.553Z,13.00
2019-05-07T10:54:12.622Z,13.78
2019-05-07T10:56:41.877Z,13.80
2019-05-07T10:59:12.259Z,13.42
2019-05-07T11:01:45.163Z,13.66
2019-05-07T11:04:13.615Z,12.94
2019-05-07T11:06:42.040Z,13.99
2019-05-07T11:09:10.630Z,12.18
2019-05-07T11:11:39.060Z,13.10
2019-05-07T11:14:07.534Z,13.11
2019-05-07T11:16:56.564Z,12.93
2019-05-07T11:19:24.977Z,12.53
2019-05-07T11:21:53.381Z,13.13
2019-05-07T11:24:22.604Z,13.12
2019-05-07T11:26:52.997Z,12.97
2019-05-07T11:29:22.085Z,12.28
2019-05-07T11:31:52.412Z,13.07
2019-05-07T11:34:22.056Z,13.65
2019-05-07T11:36:52.391Z,13.33
2019-05-07T11:39:22.666Z,12.77
2019-05-07T11:41:58.560Z,12.56
2019-05-07T11:44:28.602Z,12.75
2019-05-07T11:47:15.257Z,13.51
2019-05-07T11:50:03.142Z,13.97
2019-05-07T11:52:38.920Z,13.09
2019-05-07T11:55:07.692Z,13.84
2019-05-07T11:57:36.104Z,13.27
2019-05-07T12:00:08.396Z,12.08
2019-05-07T12:02:36.825Z,12.13
2019-05-07T12:05:08.163Z,12.54
2019-05-07T12:07:36.615Z,12.30
2019-05-07T12:10:08.157Z,12.29
2019-05-07T12:12:38.216Z,13.16
2019-05-07T12:15:06.854Z,12.48
2019-05-07T12:17:35.295Z,12.10
2019-05-07T12:20:04.751Z,11.67
2019-05-07T12:22:48.017Z,12.62
2019-05-07T12:25:23.614Z,12.51
2019-05-07T12:27:52.800Z,12.34
2019-05-07T12:30:28.989Z,11.60
2019-05-07T12:33:15.196Z,11.39
2019-05-07T12:35:43.615Z,12.29
2019-05-07T12:38:12.814Z,11.21
2019-05-07T12:40:41.929Z,11.71
2019-05-07T12:43:10.707Z,12.17
2019-05-07T12:45:39.056Z,12.51
2019-05-07T12:48:07.863Z,12.43
2019-05-07T12:50:36.680Z,12.55
2019-05-07T12:53:07.185Z,12.45
2019-05-07T12:55:37.251Z,12.18
2019-05-07T12:58:05.760Z,12.61
2019-05-07T13:00:52.119Z,12.91
2019-05-07T13:03:25.434Z,12.73
2019-05-07T13:05:53.946Z,13.23
2019-05-07T13:08:23.251Z,13.50
2019-05-07T13:10:51.944Z,13.59
2019-05-07T13:13:20.528Z,13.89
2019-05-07T13:15:48.986Z,14.30
2019-05-07T13:18:17.404Z,14.18
2019-05-07T13:20:48.811Z,14.19
2019-05-07T13:23:16.328Z,14.43
2019-05-07T13:25:44.764Z,14.82
2019-05-07T13:28:13.377Z,14.23
2019-05-07T13:30:43.791Z,14.01
2019-05-07T13:35:41.982Z,14.53
2019-05-07T13:38:14.657Z,13.75
2019-05-07T13:40:47.866Z,14.10
2019-05-07T13:43:29.574Z,14.14
2019-05-07T13:45:59.777Z,13.36
2019-05-07T13:48:28.498Z,13.61
2019-05-07T13:50:56.979Z,13.18
2019-05-07T13:53:25.680Z,12.61
2019-05-07T13:55:54.446Z,12.53
2019-05-07T13:58:23.115Z,13.29
2019-05-07T14:00:56.308Z,12.79
2019-05-07T14:03:24.728Z,12.21
2019-05-07T14:05:53.229Z,12.29
2019-05-07T14:08:23.026Z,12.04
2019-05-07T14:10:52.072Z,12.39
2019-05-07T14:13:21.958Z,13.00
2019-05-07T14:15:54.924Z,12.52
2019-05-07T14:18:25.742Z,12.71
2019-05-07T14:20:54.646Z,13.32
2019-05-07T14:23:23.079Z,13.57
2019-05-07T14:25:52.651Z,13.36
2019-05-07T14:28:23.523Z,13.53
2019-05-07T14:30:52.309Z,13.46
2019-05-07T14:33:38.313Z,13.45
2019-05-07T14:36:24.541Z,13.77
2019-05-07T14:38:54.249Z,12.83
2019-05-07T14:41:25.794Z,12.89
2019-05-07T14:44:00.398Z,13.24
2019-05-07T14:46:43.508Z,13.03
2019-05-07T14:48:59.262Z,13.05
2019-05-07T14:51:27.845Z,13.52
2019-05-07T14:53:56.273Z,13.61
2019-05-07T14:56:24.910Z,13.74
2019-05-07T14:58:53.374Z,13.86
2019-05-07T15:01:22.391Z,14.43
2019-05-07T15:03:51.669Z,14.19
2019-05-07T15:06:21.890Z,14.10
2019-05-07T15:08:52.194Z,14.59
2019-05-07T15:11:20.906Z,14.73
2019-05-07T15:13:49.530Z,14.10
2019-05-07T15:16:18.209Z,14.09
2019-05-07T15:18:53.656Z,14.34
2019-05-07T15:21:22.527Z,14.76
2019-05-07T15:23:52.961Z,15.17
2019-05-07T15:26:22.046Z,15.31
2019-05-07T15:28:52.355Z,15.31
2019-05-07T15:31:22.472Z,15.41
2019-05-07T15:33:52.277Z,15.48
2019-05-07T15:36:20.773Z,15.27
2019-05-07T15:38:49.204Z,15.16
2019-05-07T15:41:17.964Z,15.27
2019-05-07T15:43:46.502Z,15.00
2019-05-07T15:46:14.986Z,13.90
2019-05-07T15:48:43.424Z,13.60
2019-05-07T15:51:12.027Z,13.96
2019-05-07T15:53:42.782Z,14.46
2019-05-07T15:56:12.464Z,14.02
2019-05-07T15:58:42.578Z,13.35
2019-05-07T16:01:12.892Z,13.61
2019-05-07T16:03:45.496Z,12.88
2019-05-07T16:06:13.927Z,12.84
2019-05-07T16:08:43.973Z,12.62
2019-05-07T16:11:12.642Z,12.54
2019-05-07T16:13:42.691Z,12.95
2019-05-07T16:16:11.269Z,13.28
2019-05-07T16:18:57.632Z,13.34
2019-05-07T16:21:26.041Z,13.13
2019-05-07T16:23:54.854Z,12.84
2019-05-07T16:26:23.374Z,12.74
2019-05-07T16:28:53.317Z,12.62
2019-05-07T16:31:24.436Z,13.27
2019-05-07T16:33:52.220Z,13.44
2019-05-07T16:36:22.004Z,12.65
2019-05-07T16:38:52.664Z,12.60
2019-05-07T16:41:22.362Z,12.94
2019-05-07T16:43:52.455Z,13.04
2019-05-07T16:46:22.387Z,12.97
2019-05-07T16:48:50.925Z,13.12
2019-05-07T16:51:19.415Z,13.10
2019-05-07T16:53:47.866Z,12.29
2019-05-07T16:56:16.312Z,12.18
2019-05-07T16:58:49.406Z,12.12
2019-05-07T17:01:17.903Z,12.43
2019-05-07T17:03:52.098Z,12.43
2019-05-07T17:06:24.760Z,12.15
2019-05-07T17:08:52.381Z,12.28
2019-05-07T17:11:22.648Z,12.40
2019-05-07T17:13:51.886Z,12.33
2019-05-07T17:16:20.415Z,12.44
2019-05-07T17:18:49.083Z,12.10
2019-05-07T17:21:17.680Z,11.76
2019-05-07T17:23:46.263Z,11.67
2019-05-07T17:26:15.065Z,11.57
2019-05-07T17:28:43.608Z,11.79
2019-05-07T17:31:12.484Z,11.85
2019-05-07T17:33:42.429Z,11.56
2019-05-07T17:36:12.107Z,11.61
2019-05-07T17:38:42.702Z,11.70
2019-05-07T17:41:18.278Z,11.84
2019-05-07T17:43:41.164Z,11.80
2019-05-07T17:46:09.583Z,11.66
2019-05-07T17:48:38.030Z,11.31
2019-05-07T17:51:08.125Z,11.38
2019-05-07T17:53:36.912Z,11.47
2019-05-07T17:56:05.837Z,11.37
2019-05-07T17:58:34.516Z,11.45
2019-05-07T18:01:03.871Z,11.35
2019-05-07T18:03:36.921Z,10.96
2019-05-07T18:06:06.348Z,10.96
2019-05-07T18:08:35.080Z,11.15
2019-05-07T18:11:17.426Z,11.18
2019-05-07T18:13:34.006Z,11.22
2019-05-07T18:16:04.086Z,11.11
2019-05-07T18:18:32.968Z,11.16
2019-05-07T18:21:02.313Z,11.08
2019-05-07T18:23:32.175Z,11.09
2019-05-07T18:26:00.811Z,11.00
2019-05-07T18:28:29.672Z,11.04
2019-05-07T18:30:58.971Z,11.18
2019-05-07T18:33:29.054Z,11.31
2019-05-07T18:35:57.582Z,11.35
2019-05-07T18:38:27.453Z,11.39
2019-05-07T18:40:57.225Z,11.34
2019-05-07T18:43:25.702Z,11.30
2019-05-07T18:45:54.153Z,11.36
2019-05-07T18:48:22.575Z,11.39
2019-05-07T18:50:52.257Z,11.39
2019-05-07T18:53:22.729Z,11.39
2019-05-07T18:55:51.713Z,11.36
2019-05-07T18:58:22.263Z,11.28
2019-05-07T19:00:55.190Z,11.26
2019-05-07T19:03:25.365Z,11.23
2019-05-07T19:05:54.388Z,11.20
2019-05-07T19:08:23.164Z,11.20
2019-05-07T19:10:52.302Z,11.12
2019-05-07T19:13:22.206Z,10.90
2019-05-07T19:15:52.997Z,10.72
2019-05-07T19:18:22.788Z,10.46
2019-05-07T19:20:52.993Z,10.46
2019-05-07T19:23:22.311Z,10.39
2019-05-07T19:25:52.250Z,10.23
2019-05-07T19:28:22.436Z,10.25
2019-05-07T19:30:52.757Z,10.27
2019-05-07T19:33:26.198Z,10.24
2019-05-07T19:35:52.852Z,10.18
2019-05-07T19:38:21.334Z,10.15
2019-05-07T19:40:49.783Z,10.27
2019-05-07T19:43:18.276Z,10.25
2019-05-07T19:45:46.685Z,10.29
2019-05-07T19:48:15.248Z,10.25
2019-05-07T19:50:43.712Z,10.28
2019-05-07T19:53:12.566Z,10.29
2019-05-07T19:55:45.369Z,10.37
2019-05-07T19:58:12.851Z,10.36
2019-05-07T20:00:42.099Z,10.32
2019-05-07T20:03:13.146Z,10.17
2019-05-07T20:05:41.998Z,10.08
2019-05-07T20:08:12.085Z,9.99
2019-05-07T20:10:42.329Z,9.83
2019-05-07T20:13:12.440Z,9.75
2019-05-07T20:15:42.881Z,9.77
2019-05-07T20:18:12.437Z,9.80
2019-05-07T20:20:42.419Z,9.78
2019-05-07T20:23:12.042Z,9.69
2019-05-07T20:25:42.012Z,9.69
2019-05-07T20:28:12.728Z,9.63
2019-05-07T20:30:41.783Z,9.46
2019-05-07T20:33:10.803Z,9.37
2019-05-07T20:35:41.317Z,9.25
2019-05-07T20:38:09.670Z,9.34
2019-05-07T20:40:42.467Z,9.34
2019-05-07T20:43:12.667Z,9.18
2019-05-07T20:45:42.590Z,9.12
2019-05-07T20:48:11.271Z,9.21
2019-05-07T20:50:39.772Z,9.24
2019-05-07T20:53:08.179Z,9.40
2019-05-07T20:55:54.266Z,9.44
2019-05-07T20:58:22.750Z,9.46
2019-05-07T21:00:52.610Z,9.32
2019-05-07T21:03:23.709Z,9.04
2019-05-07T21:05:53.439Z,8.84
2019-05-07T21:08:22.700Z,8.70
2019-05-07T21:10:53.493Z,8.47
2019-05-07T21:13:30.133Z,8.32
2019-05-07T21:15:52.762Z,8.44
2019-05-07T21:18:23.249Z,8.45
2019-05-07T21:20:52.969Z,8.51
2019-05-07T21:23:23.101Z,8.68
2019-05-07T21:25:52.859Z,8.74
2019-05-07T21:28:21.643Z,8.74
2019-05-07T21:30:52.200Z,8.63
2019-05-07T21:33:22.575Z,8.53
2019-05-07T21:35:52.274Z,8.31
2019-05-07T21:38:22.372Z,8.42
2019-05-07T21:40:50.700Z,8.37
2019-05-07T21:43:19.139Z,8.38
2019-05-07T21:45:47.543Z,8.49
2019-05-07T21:48:15.944Z,8.29
2019-05-07T21:50:44.381Z,8.17
2019-05-07T21:53:29.201Z,8.27
2019-05-07T21:56:05.416Z,8.17
2019-05-07T21:58:34.891Z,8.12
2019-05-07T22:01:17.172Z,8.22
2019-05-07T22:03:47.240Z,8.25
2019-05-07T22:06:15.708Z,8.24
2019-05-07T22:08:44.106Z,8.16
2019-05-07T22:11:12.620Z,8.11
2019-05-07T22:13:43.304Z,8.12
2019-05-07T22:16:13.025Z,8.14
2019-05-07T22:18:42.711Z,8.16
2019-05-07T22:21:12.467Z,8.04
2019-05-07T22:23:42.768Z,8.08
2019-05-07T22:26:20.032Z,8.05
2019-05-07T22:28:42.044Z,7.98
2019-05-07T22:31:17.831Z,7.96
2019-05-07T22:33:47.969Z,7.90
2019-05-07T22:36:16.410Z,7.98
2019-05-07T22:38:44.866Z,7.92
2019-05-07T22:41:13.282Z,7.91
2019-05-07T22:43:42.477Z,7.77
2019-05-07T22:46:12.456Z,7.75
2019-05-07T22:48:41.920Z,7.65
2019-05-07T22:51:12.197Z,7.65
2019-05-07T22:53:40.640Z,7.69
2019-05-07T22:56:09.047Z,7.59
2019-05-07T22:58:55.396Z,7.64
2019-05-07T23:01:23.808Z,7.86
2019-05-07T23:03:54.098Z,7.93
2019-05-07T23:06:23.182Z,7.78
2019-05-07T23:08:52.993Z,8.04
2019-05-07T23:11:22.871Z,7.94
2019-05-07T23:13:54.429Z,7.91
2019-05-07T23:16:23.100Z,7.91
2019-05-07T23:18:51.748Z,7.92
2019-05-07T23:21:24.287Z,7.91
2019-05-07T23:23:52.626Z,7.83
2019-05-07T23:26:23.150Z,7.85
2019-05-07T23:28:51.907Z,7.86
2019-05-07T23:31:22.676Z,7.77
2019-05-07T23:33:52.277Z,7.73
2019-05-07T23:36:22.464Z,7.75
2019-05-07T23:38:52.120Z,7.76
2019-05-07T23:41:22.403Z,7.70
2019-05-07T23:44:08.681Z,7.62
2019-05-07T23:46:37.090Z,7.60
2019-05-07T23:49:05.533Z,7.74
2019-05-07T23:51:33.949Z,7.81
2019-05-07T23:54:02.914Z,7.68
2019-05-07T23:56:32.894Z,7.69
2019-05-07T23:59:01.479Z,7.59
